sensor_id;sensor_type;location;lat;lon;timestamp;P1;durP1;ratioP1;P2;durP2;ratioP2
12088;SDS011;6107;49.078;8.578;2023-08-21T00:02:19;15.60;;;5.07;;
12088;SDS011;6107;49.078;8.578;2023-08-21T00:04:44;7.63;;;3.78;;
12088;SDS011;6107;49.078;8.578;2023-08-21T00:07:10;7.70;;;3.97;;
12088;SDS011;6107;49.078;8.578;2023-08-21T00:09:36;7.32;;;4.45;;
12088;SDS011;6107;49.078;8.578;2023-08-21T00:12:02;14.18;;;3.45;;
12088;SDS011;6107;49.078;8.578;2023-08-21T00:14:28;6.25;;;3.95;;
12088;SDS011;6107;49.078;8.578;2023-08-21T00:16:53;8.15;;;3.97;;
12088;SDS011;6107;49.078;8.578;2023-08-21T00:19:19;15.65;;;3.67;;
12088;SDS011;6107;49.078;8.578;2023-08-21T00:21:44;8.20;;;3.85;;
12088;SDS011;6107;49.078;8.578;2023-08-21T00:24:10;9.88;;;4.35;;
12088;SDS011;6107;49.078;8.578;2023-08-21T00:26:36;8.82;;;4.10;;
12088;SDS011;6107;49.078;8.578;2023-08-21T00:29:01;7.28;;;4.78;;
12088;SDS011;6107;49.078;8.578;2023-08-21T00:31:27;10.18;;;3.92;;
12088;SDS011;6107;49.078;8.578;2023-08-21T00:33:52;6.50;;;3.88;;
12088;SDS011;6107;49.078;8.578;2023-08-21T00:36:18;7.75;;;4.20;;
12088;SDS011;6107;49.078;8.578;2023-08-21T00:38:44;5.78;;;3.85;;
12088;SDS011;6107;49.078;8.578;2023-08-21T00:41:10;9.65;;;4.65;;
12088;SDS011;6107;49.078;8.578;2023-08-21T00:43:36;5.88;;;4.28;;
12088;SDS011;6107;49.078;8.578;2023-08-21T00:46:02;7.72;;;4.45;;
12088;SDS011;6107;49.078;8.578;2023-08-21T00:48:28;11.55;;;4.57;;
12088;SDS011;6107;49.078;8.578;2023-08-21T00:50:53;12.32;;;4.63;;
12088;SDS011;6107;49.078;8.578;2023-08-21T00:53:20;14.13;;;4.72;;
12088;SDS011;6107;49.078;8.578;2023-08-21T00:55:46;10.07;;;5.40;;
12088;SDS011;6107;49.078;8.578;2023-08-21T00:58:12;8.73;;;4.70;;
12088;SDS011;6107;49.078;8.578;2023-08-21T01:00:38;16.73;;;4.93;;
12088;SDS011;6107;49.078;8.578;2023-08-21T01:03:04;8.52;;;4.32;;
12088;SDS011;6107;49.078;8.578;2023-08-21T01:05:29;8.85;;;4.43;;
12088;SDS011;6107;49.078;8.578;2023-08-21T01:08:02;12.13;;;4.65;;
12088;SDS011;6107;49.078;8.578;2023-08-21T01:10:33;12.25;;;4.25;;
12088;SDS011;6107;49.078;8.578;2023-08-21T01:13:19;6.63;;;4.32;;
12088;SDS011;6107;49.078;8.578;2023-08-21T01:15:53;7.65;;;4.03;;
12088;SDS011;6107;49.078;8.578;2023-08-21T01:18:20;9.82;;;4.97;;
12088;SDS011;6107;49.078;8.578;2023-08-21T01:20:47;7.57;;;4.22;;
12088;SDS011;6107;49.078;8.578;2023-08-21T01:23:27;9.73;;;4.80;;
12088;SDS011;6107;49.078;8.578;2023-08-21T01:25:59;8.00;;;4.47;;
12088;SDS011;6107;49.078;8.578;2023-08-21T01:28:25;8.95;;;4.72;;
12088;SDS011;6107;49.078;8.578;2023-08-21T01:30:52;8.10;;;5.07;;
12088;SDS011;6107;49.078;8.578;2023-08-21T01:33:25;12.05;;;4.35;;
12088;SDS011;6107;49.078;8.578;2023-08-21T01:35:53;19.20;;;4.60;;
12088;SDS011;6107;49.078;8.578;2023-08-21T01:38:20;12.73;;;4.82;;
12088;SDS011;6107;49.078;8.578;2023-08-21T01:40:46;8.38;;;4.78;;
12088;SDS011;6107;49.078;8.578;2023-08-21T01:43:12;11.02;;;4.97;;
12088;SDS011;6107;49.078;8.578;2023-08-21T01:45:37;10.38;;;4.43;;
12088;SDS011;6107;49.078;8.578;2023-08-21T01:48:03;13.95;;;4.90;;
12088;SDS011;6107;49.078;8.578;2023-08-21T01:50:28;8.38;;;4.47;;
12088;SDS011;6107;49.078;8.578;2023-08-21T01:52:54;8.82;;;4.47;;
12088;SDS011;6107;49.078;8.578;2023-08-21T01:55:19;10.18;;;4.63;;
12088;SDS011;6107;49.078;8.578;2023-08-21T01:57:45;11.07;;;4.68;;
12088;SDS011;6107;49.078;8.578;2023-08-21T02:00:12;8.77;;;5.07;;
12088;SDS011;6107;49.078;8.578;2023-08-21T02:02:38;13.60;;;4.25;;
12088;SDS011;6107;49.078;8.578;2023-08-21T02:05:03;9.20;;;4.28;;
12088;SDS011;6107;49.078;8.578;2023-08-21T02:07:29;9.48;;;4.18;;
12088;SDS011;6107;49.078;8.578;2023-08-21T02:09:55;10.35;;;4.72;;
12088;SDS011;6107;49.078;8.578;2023-08-21T02:12:20;9.63;;;5.20;;
12088;SDS011;6107;49.078;8.578;2023-08-21T02:14:46;10.80;;;4.97;;
12088;SDS011;6107;49.078;8.578;2023-08-21T02:17:11;7.57;;;4.97;;
12088;SDS011;6107;49.078;8.578;2023-08-21T02:19:36;11.30;;;4.90;;
12088;SDS011;6107;49.078;8.578;2023-08-21T02:22:02;7.47;;;4.47;;
12088;SDS011;6107;49.078;8.578;2023-08-21T02:24:27;8.77;;;4.53;;
12088;SDS011;6107;49.078;8.578;2023-08-21T02:26:53;8.35;;;4.82;;
12088;SDS011;6107;49.078;8.578;2023-08-21T02:29:19;8.85;;;4.18;;
12088;SDS011;6107;49.078;8.578;2023-08-21T02:31:44;10.95;;;5.00;;
12088;SDS011;6107;49.078;8.578;2023-08-21T02:34:09;7.50;;;4.95;;
12088;SDS011;6107;49.078;8.578;2023-08-21T02:36:35;10.65;;;4.57;;
12088;SDS011;6107;49.078;8.578;2023-08-21T02:39:00;7.50;;;4.90;;
12088;SDS011;6107;49.078;8.578;2023-08-21T02:41:26;8.70;;;4.88;;
12088;SDS011;6107;49.078;8.578;2023-08-21T02:43:52;7.05;;;4.50;;
12088;SDS011;6107;49.078;8.578;2023-08-21T02:46:17;9.90;;;5.22;;
12088;SDS011;6107;49.078;8.578;2023-08-21T02:48:43;9.80;;;5.05;;
12088;SDS011;6107;49.078;8.578;2023-08-21T02:51:08;8.63;;;4.35;;
12088;SDS011;6107;49.078;8.578;2023-08-21T02:53:34;9.38;;;5.32;;
12088;SDS011;6107;49.078;8.578;2023-08-21T02:55:59;10.38;;;5.72;;
12088;SDS011;6107;49.078;8.578;2023-08-21T02:58:25;8.52;;;4.75;;
12088;SDS011;6107;49.078;8.578;2023-08-21T03:00:50;11.63;;;5.28;;
12088;SDS011;6107;49.078;8.578;2023-08-21T03:03:16;9.50;;;5.22;;
12088;SDS011;6107;49.078;8.578;2023-08-21T03:05:42;8.65;;;4.95;;
12088;SDS011;6107;49.078;8.578;2023-08-21T03:08:07;9.75;;;4.85;;
12088;SDS011;6107;49.078;8.578;2023-08-21T03:10:33;7.30;;;4.55;;
12088;SDS011;6107;49.078;8.578;2023-08-21T03:12:59;13.07;;;5.30;;
12088;SDS011;6107;49.078;8.578;2023-08-21T03:15:25;10.00;;;4.97;;
12088;SDS011;6107;49.078;8.578;2023-08-21T03:17:50;9.45;;;5.30;;
12088;SDS011;6107;49.078;8.578;2023-08-21T03:20:16;10.35;;;4.82;;
12088;SDS011;6107;49.078;8.578;2023-08-21T03:22:44;9.38;;;4.72;;
12088;SDS011;6107;49.078;8.578;2023-08-21T03:25:11;7.35;;;4.65;;
12088;SDS011;6107;49.078;8.578;2023-08-21T03:27:37;10.90;;;4.53;;
12088;SDS011;6107;49.078;8.578;2023-08-21T03:30:09;7.97;;;4.68;;
12088;SDS011;6107;49.078;8.578;2023-08-21T03:32:35;8.13;;;4.60;;
12088;SDS011;6107;49.078;8.578;2023-08-21T03:35:00;17.75;;;5.82;;
12088;SDS011;6107;49.078;8.578;2023-08-21T03:37:26;15.77;;;6.32;;
12088;SDS011;6107;49.078;8.578;2023-08-21T03:39:51;7.40;;;4.53;;
12088;SDS011;6107;49.078;8.578;2023-08-21T03:42:17;10.55;;;5.40;;
12088;SDS011;6107;49.078;8.578;2023-08-21T03:44:42;13.30;;;4.55;;
12088;SDS011;6107;49.078;8.578;2023-08-21T03:47:08;7.25;;;4.43;;
12088;SDS011;6107;49.078;8.578;2023-08-21T03:49:34;12.02;;;4.63;;
12088;SDS011;6107;49.078;8.578;2023-08-21T03:51:59;7.80;;;4.30;;
12088;SDS011;6107;49.078;8.578;2023-08-21T03:54:25;9.70;;;5.75;;
12088;SDS011;6107;49.078;8.578;2023-08-21T03:56:50;11.20;;;5.13;;
12088;SDS011;6107;49.078;8.578;2023-08-21T03:59:16;6.72;;;4.60;;
12088;SDS011;6107;49.078;8.578;2023-08-21T04:01:41;9.90;;;4.53;;
12088;SDS011;6107;49.078;8.578;2023-08-21T04:04:07;8.65;;;5.13;;
12088;SDS011;6107;49.078;8.578;2023-08-21T04:06:32;12.80;;;5.80;;
12088;SDS011;6107;49.078;8.578;2023-08-21T04:08:58;12.60;;;5.97;;
12088;SDS011;6107;49.078;8.578;2023-08-21T04:11:23;7.70;;;4.60;;
12088;SDS011;6107;49.078;8.578;2023-08-21T04:13:49;10.35;;;5.30;;
12088;SDS011;6107;49.078;8.578;2023-08-21T04:16:14;11.93;;;5.80;;
12088;SDS011;6107;49.078;8.578;2023-08-21T04:18:41;7.32;;;4.82;;
12088;SDS011;6107;49.078;8.578;2023-08-21T04:21:06;9.13;;;5.10;;
12088;SDS011;6107;49.078;8.578;2023-08-21T04:23:32;24.17;;;6.00;;
12088;SDS011;6107;49.078;8.578;2023-08-21T04:26:01;7.97;;;4.75;;
12088;SDS011;6107;49.078;8.578;2023-08-21T04:28:27;9.57;;;5.20;;
12088;SDS011;6107;49.078;8.578;2023-08-21T04:30:53;7.90;;;5.07;;
12088;SDS011;6107;49.078;8.578;2023-08-21T04:33:18;10.65;;;5.20;;
12088;SDS011;6107;49.078;8.578;2023-08-21T04:35:44;9.00;;;4.60;;
12088;SDS011;6107;49.078;8.578;2023-08-21T04:38:09;9.20;;;5.18;;
12088;SDS011;6107;49.078;8.578;2023-08-21T04:40:35;8.98;;;5.10;;
12088;SDS011;6107;49.078;8.578;2023-08-21T04:43:00;10.82;;;5.45;;
12088;SDS011;6107;49.078;8.578;2023-08-21T04:45:26;10.32;;;4.97;;
12088;SDS011;6107;49.078;8.578;2023-08-21T04:47:51;7.68;;;5.25;;
12088;SDS011;6107;49.078;8.578;2023-08-21T04:50:17;16.45;;;5.05;;
12088;SDS011;6107;49.078;8.578;2023-08-21T04:52:42;14.32;;;5.55;;
12088;SDS011;6107;49.078;8.578;2023-08-21T04:55:08;10.32;;;5.38;;
12088;SDS011;6107;49.078;8.578;2023-08-21T04:57:33;6.97;;;4.65;;
12088;SDS011;6107;49.078;8.578;2023-08-21T04:59:59;11.13;;;6.13;;
12088;SDS011;6107;49.078;8.578;2023-08-21T05:02:25;9.70;;;5.88;;
12088;SDS011;6107;49.078;8.578;2023-08-21T05:04:50;8.65;;;5.18;;
12088;SDS011;6107;49.078;8.578;2023-08-21T05:07:16;8.10;;;5.38;;
12088;SDS011;6107;49.078;8.578;2023-08-21T05:09:41;11.48;;;5.80;;
12088;SDS011;6107;49.078;8.578;2023-08-21T05:12:07;7.78;;;4.97;;
12088;SDS011;6107;49.078;8.578;2023-08-21T05:14:33;11.88;;;4.78;;
12088;SDS011;6107;49.078;8.578;2023-08-21T05:16:59;11.18;;;5.22;;
12088;SDS011;6107;49.078;8.578;2023-08-21T05:19:24;8.48;;;5.80;;
12088;SDS011;6107;49.078;8.578;2023-08-21T05:21:50;10.85;;;5.68;;
12088;SDS011;6107;49.078;8.578;2023-08-21T05:24:15;9.93;;;5.38;;
12088;SDS011;6107;49.078;8.578;2023-08-21T05:26:41;12.65;;;5.80;;
12088;SDS011;6107;49.078;8.578;2023-08-21T05:29:06;8.40;;;6.00;;
12088;SDS011;6107;49.078;8.578;2023-08-21T05:31:32;10.65;;;6.63;;
12088;SDS011;6107;49.078;8.578;2023-08-21T05:33:58;9.05;;;5.75;;
12088;SDS011;6107;49.078;8.578;2023-08-21T05:36:23;10.82;;;5.72;;
12088;SDS011;6107;49.078;8.578;2023-08-21T05:38:49;10.52;;;6.03;;
12088;SDS011;6107;49.078;8.578;2023-08-21T05:41:16;12.90;;;5.32;;
12088;SDS011;6107;49.078;8.578;2023-08-21T05:43:41;11.60;;;6.03;;
12088;SDS011;6107;49.078;8.578;2023-08-21T05:46:07;9.65;;;6.05;;
12088;SDS011;6107;49.078;8.578;2023-08-21T05:48:33;15.55;;;7.03;;
12088;SDS011;6107;49.078;8.578;2023-08-21T05:50:59;14.68;;;6.38;;
12088;SDS011;6107;49.078;8.578;2023-08-21T05:53:24;11.57;;;6.18;;
12088;SDS011;6107;49.078;8.578;2023-08-21T05:55:50;13.90;;;5.90;;
12088;SDS011;6107;49.078;8.578;2023-08-21T05:58:16;18.90;;;6.20;;
12088;SDS011;6107;49.078;8.578;2023-08-21T06:00:42;13.57;;;6.38;;
12088;SDS011;6107;49.078;8.578;2023-08-21T06:03:09;14.88;;;5.32;;
12088;SDS011;6107;49.078;8.578;2023-08-21T06:05:35;10.18;;;5.85;;
12088;SDS011;6107;49.078;8.578;2023-08-21T06:08:00;12.10;;;5.68;;
12088;SDS011;6107;49.078;8.578;2023-08-21T06:10:26;11.02;;;6.13;;
12088;SDS011;6107;49.078;8.578;2023-08-21T06:12:51;12.02;;;5.53;;
12088;SDS011;6107;49.078;8.578;2023-08-21T06:15:17;9.52;;;5.50;;
12088;SDS011;6107;49.078;8.578;2023-08-21T06:17:42;12.65;;;6.00;;
12088;SDS011;6107;49.078;8.578;2023-08-21T06:20:08;10.52;;;6.07;;
12088;SDS011;6107;49.078;8.578;2023-08-21T06:22:34;10.13;;;5.80;;
12088;SDS011;6107;49.078;8.578;2023-08-21T06:25:00;9.77;;;5.60;;
12088;SDS011;6107;49.078;8.578;2023-08-21T06:27:25;18.25;;;5.95;;
12088;SDS011;6107;49.078;8.578;2023-08-21T06:29:51;10.60;;;5.57;;
12088;SDS011;6107;49.078;8.578;2023-08-21T06:32:16;8.82;;;5.40;;
12088;SDS011;6107;49.078;8.578;2023-08-21T06:34:42;18.38;;;6.55;;
12088;SDS011;6107;49.078;8.578;2023-08-21T06:37:07;13.15;;;6.55;;
12088;SDS011;6107;49.078;8.578;2023-08-21T06:39:34;15.32;;;7.03;;
12088;SDS011;6107;49.078;8.578;2023-08-21T06:41:59;13.57;;;6.53;;
12088;SDS011;6107;49.078;8.578;2023-08-21T06:44:25;11.60;;;6.88;;
12088;SDS011;6107;49.078;8.578;2023-08-21T06:46:51;18.95;;;6.65;;
12088;SDS011;6107;49.078;8.578;2023-08-21T06:49:17;10.70;;;6.22;;
12088;SDS011;6107;49.078;8.578;2023-08-21T06:51:42;11.05;;;6.18;;
12088;SDS011;6107;49.078;8.578;2023-08-21T06:54:08;10.20;;;6.07;;
12088;SDS011;6107;49.078;8.578;2023-08-21T06:56:33;9.20;;;5.85;;
12088;SDS011;6107;49.078;8.578;2023-08-21T06:58:59;16.13;;;6.38;;
12088;SDS011;6107;49.078;8.578;2023-08-21T07:01:24;12.48;;;6.43;;
12088;SDS011;6107;49.078;8.578;2023-08-21T07:03:50;13.40;;;6.43;;
12088;SDS011;6107;49.078;8.578;2023-08-21T07:06:15;10.00;;;5.90;;
12088;SDS011;6107;49.078;8.578;2023-08-21T07:08:41;7.90;;;5.22;;
12088;SDS011;6107;49.078;8.578;2023-08-21T07:11:07;12.10;;;5.70;;
12088;SDS011;6107;49.078;8.578;2023-08-21T07:13:37;11.70;;;6.22;;
12088;SDS011;6107;49.078;8.578;2023-08-21T07:16:03;9.27;;;5.43;;
12088;SDS011;6107;49.078;8.578;2023-08-21T07:18:31;12.95;;;5.68;;
12088;SDS011;6107;49.078;8.578;2023-08-21T07:20:57;13.07;;;6.10;;
12088;SDS011;6107;49.078;8.578;2023-08-21T07:23:22;12.27;;;6.70;;
12088;SDS011;6107;49.078;8.578;2023-08-21T07:25:48;10.45;;;5.78;;
12088;SDS011;6107;49.078;8.578;2023-08-21T07:28:14;16.35;;;6.30;;
12088;SDS011;6107;49.078;8.578;2023-08-21T07:30:39;10.93;;;5.65;;
12088;SDS011;6107;49.078;8.578;2023-08-21T07:33:05;11.38;;;5.63;;
12088;SDS011;6107;49.078;8.578;2023-08-21T07:35:31;12.10;;;5.38;;
12088;SDS011;6107;49.078;8.578;2023-08-21T07:37:57;11.15;;;5.45;;
12088;SDS011;6107;49.078;8.578;2023-08-21T07:40:23;18.67;;;5.07;;
12088;SDS011;6107;49.078;8.578;2023-08-21T07:42:48;8.35;;;5.22;;
12088;SDS011;6107;49.078;8.578;2023-08-21T07:45:14;9.52;;;5.22;;
12088;SDS011;6107;49.078;8.578;2023-08-21T07:47:39;8.43;;;5.25;;
12088;SDS011;6107;49.078;8.578;2023-08-21T07:50:05;9.85;;;5.35;;
12088;SDS011;6107;49.078;8.578;2023-08-21T07:52:31;9.85;;;5.53;;
12088;SDS011;6107;49.078;8.578;2023-08-21T07:54:57;8.65;;;4.63;;
12088;SDS011;6107;49.078;8.578;2023-08-21T07:57:25;8.82;;;5.07;;
12088;SDS011;6107;49.078;8.578;2023-08-21T07:59:51;12.77;;;5.47;;
12088;SDS011;6107;49.078;8.578;2023-08-21T08:02:17;16.77;;;5.72;;
12088;SDS011;6107;49.078;8.578;2023-08-21T08:04:42;12.90;;;5.00;;
12088;SDS011;6107;49.078;8.578;2023-08-21T08:07:08;11.02;;;5.47;;
12088;SDS011;6107;49.078;8.578;2023-08-21T08:09:33;9.52;;;4.78;;
12088;SDS011;6107;49.078;8.578;2023-08-21T08:11:59;12.85;;;5.07;;
12088;SDS011;6107;49.078;8.578;2023-08-21T08:14:24;10.43;;;5.53;;
12088;SDS011;6107;49.078;8.578;2023-08-21T08:16:50;12.38;;;5.07;;
12088;SDS011;6107;49.078;8.578;2023-08-21T08:19:15;9.57;;;5.82;;
12088;SDS011;6107;49.078;8.578;2023-08-21T08:21:41;10.18;;;4.75;;
12088;SDS011;6107;49.078;8.578;2023-08-21T08:24:06;11.23;;;5.20;;
12088;SDS011;6107;49.078;8.578;2023-08-21T08:26:32;7.72;;;4.45;;
12088;SDS011;6107;49.078;8.578;2023-08-21T08:28:57;8.60;;;5.40;;
12088;SDS011;6107;49.078;8.578;2023-08-21T08:31:23;7.72;;;4.72;;
12088;SDS011;6107;49.078;8.578;2023-08-21T08:33:50;10.68;;;5.47;;
12088;SDS011;6107;49.078;8.578;2023-08-21T08:36:16;6.57;;;5.05;;
12088;SDS011;6107;49.078;8.578;2023-08-21T08:38:42;8.32;;;5.10;;
12088;SDS011;6107;49.078;8.578;2023-08-21T08:41:12;9.50;;;5.38;;
12088;SDS011;6107;49.078;8.578;2023-08-21T08:43:56;9.38;;;4.95;;
12088;SDS011;6107;49.078;8.578;2023-08-21T08:46:23;10.73;;;5.65;;
12088;SDS011;6107;49.078;8.578;2023-08-21T08:48:51;10.73;;;5.75;;
12088;SDS011;6107;49.078;8.578;2023-08-21T08:51:18;11.32;;;5.45;;
12088;SDS011;6107;49.078;8.578;2023-08-21T08:53:44;9.05;;;4.60;;
12088;SDS011;6107;49.078;8.578;2023-08-21T08:56:09;11.15;;;5.20;;
12088;SDS011;6107;49.078;8.578;2023-08-21T08:58:35;9.77;;;5.25;;
12088;SDS011;6107;49.078;8.578;2023-08-21T09:01:01;8.02;;;5.20;;
12088;SDS011;6107;49.078;8.578;2023-08-21T09:03:27;11.07;;;5.32;;
12088;SDS011;6107;49.078;8.578;2023-08-21T09:05:54;14.02;;;5.22;;
12088;SDS011;6107;49.078;8.578;2023-08-21T09:08:19;9.20;;;5.07;;
12088;SDS011;6107;49.078;8.578;2023-08-21T09:10:45;9.00;;;5.53;;
12088;SDS011;6107;49.078;8.578;2023-08-21T09:13:11;10.52;;;4.82;;
12088;SDS011;6107;49.078;8.578;2023-08-21T09:15:48;7.28;;;4.40;;
12088;SDS011;6107;49.078;8.578;2023-08-21T09:18:18;7.57;;;4.80;;
12088;SDS011;6107;49.078;8.578;2023-08-21T09:20:43;8.65;;;4.88;;
12088;SDS011;6107;49.078;8.578;2023-08-21T09:23:12;8.05;;;5.35;;
12088;SDS011;6107;49.078;8.578;2023-08-21T09:25:39;7.80;;;5.20;;
12088;SDS011;6107;49.078;8.578;2023-08-21T09:28:06;8.30;;;5.20;;
12088;SDS011;6107;49.078;8.578;2023-08-21T09:33:20;7.10;;;4.82;;
12088;SDS011;6107;49.078;8.578;2023-08-21T09:35:47;9.32;;;4.65;;
12088;SDS011;6107;49.078;8.578;2023-08-21T09:38:13;9.90;;;4.55;;
12088;SDS011;6107;49.078;8.578;2023-08-21T09:40:42;12.20;;;4.63;;
12088;SDS011;6107;49.078;8.578;2023-08-21T09:43:16;7.40;;;4.82;;
12088;SDS011;6107;49.078;8.578;2023-08-21T09:45:42;8.02;;;4.80;;
12088;SDS011;6107;49.078;8.578;2023-08-21T09:48:11;9.95;;;5.15;;
12088;SDS011;6107;49.078;8.578;2023-08-21T09:50:37;11.98;;;5.03;;
12088;SDS011;6107;49.078;8.578;2023-08-21T09:53:06;11.07;;;4.65;;
12088;SDS011;6107;49.078;8.578;2023-08-21T09:55:32;6.65;;;4.60;;
12088;SDS011;6107;49.078;8.578;2023-08-21T09:58:01;9.88;;;5.18;;
12088;SDS011;6107;49.078;8.578;2023-08-21T10:00:30;6.07;;;3.90;;
12088;SDS011;6107;49.078;8.578;2023-08-21T10:03:02;7.78;;;4.90;;
12088;SDS011;6107;49.078;8.578;2023-08-21T10:05:33;7.40;;;5.07;;
12088;SDS011;6107;49.078;8.578;2023-08-21T10:08:00;12.10;;;5.28;;
12088;SDS011;6107;49.078;8.578;2023-08-21T10:10:33;11.18;;;4.82;;
12088;SDS011;6107;49.078;8.578;2023-08-21T10:13:01;9.55;;;4.53;;
12088;SDS011;6107;49.078;8.578;2023-08-21T10:15:28;10.85;;;4.75;;
12088;SDS011;6107;49.078;8.578;2023-08-21T10:17:55;11.40;;;4.47;;
12088;SDS011;6107;49.078;8.578;2023-08-21T10:20:21;9.20;;;5.32;;
12088;SDS011;6107;49.078;8.578;2023-08-21T10:22:48;6.32;;;4.28;;
12088;SDS011;6107;49.078;8.578;2023-08-21T10:25:15;6.65;;;3.58;;
12088;SDS011;6107;49.078;8.578;2023-08-21T10:27:41;6.55;;;4.25;;
12088;SDS011;6107;49.078;8.578;2023-08-21T10:30:23;8.98;;;4.38;;
12088;SDS011;6107;49.078;8.578;2023-08-21T10:32:51;6.53;;;4.35;;
12088;SDS011;6107;49.078;8.578;2023-08-21T10:35:22;7.85;;;4.50;;
12088;SDS011;6107;49.078;8.578;2023-08-21T10:40:37;7.43;;;4.40;;
12088;SDS011;6107;49.078;8.578;2023-08-21T10:43:04;8.05;;;4.75;;
12088;SDS011;6107;49.078;8.578;2023-08-21T10:45:55;6.45;;;4.35;;
12088;SDS011;6107;49.078;8.578;2023-08-21T10:48:21;9.75;;;4.60;;
12088;SDS011;6107;49.078;8.578;2023-08-21T10:50:47;6.00;;;3.45;;
12088;SDS011;6107;49.078;8.578;2023-08-21T10:53:13;12.05;;;3.90;;
12088;SDS011;6107;49.078;8.578;2023-08-21T10:55:39;7.38;;;4.60;;
12088;SDS011;6107;49.078;8.578;2023-08-21T10:58:04;13.95;;;4.63;;
12088;SDS011;6107;49.078;8.578;2023-08-21T11:00:29;6.80;;;4.00;;
12088;SDS011;6107;49.078;8.578;2023-08-21T11:02:55;7.80;;;4.00;;
12088;SDS011;6107;49.078;8.578;2023-08-21T11:05:21;8.48;;;4.13;;
12088;SDS011;6107;49.078;8.578;2023-08-21T11:07:47;11.15;;;3.80;;
12088;SDS011;6107;49.078;8.578;2023-08-21T11:10:17;6.57;;;4.10;;
12088;SDS011;6107;49.078;8.578;2023-08-21T11:12:53;4.78;;;3.20;;
12088;SDS011;6107;49.078;8.578;2023-08-21T11:15:20;10.23;;;4.07;;
12088;SDS011;6107;49.078;8.578;2023-08-21T11:17:59;10.45;;;3.70;;
12088;SDS011;6107;49.078;8.578;2023-08-21T11:20:33;5.88;;;3.70;;
12088;SDS011;6107;49.078;8.578;2023-08-21T11:22:59;8.10;;;3.20;;
12088;SDS011;6107;49.078;8.578;2023-08-21T11:25:31;6.43;;;3.95;;
12088;SDS011;6107;49.078;8.578;2023-08-21T11:27:58;6.95;;;3.70;;
12088;SDS011;6107;49.078;8.578;2023-08-21T11:30:24;5.13;;;3.58;;
12088;SDS011;6107;49.078;8.578;2023-08-21T11:35:31;6.60;;;3.33;;
12088;SDS011;6107;49.078;8.578;2023-08-21T11:37:56;7.07;;;3.28;;
12088;SDS011;6107;49.078;8.578;2023-08-21T11:40:22;9.48;;;4.00;;
12088;SDS011;6107;49.078;8.578;2023-08-21T11:42:47;6.35;;;3.45;;
12088;SDS011;6107;49.078;8.578;2023-08-21T11:45:17;7.25;;;3.42;;
12088;SDS011;6107;49.078;8.578;2023-08-21T11:47:46;8.23;;;4.18;;
12088;SDS011;6107;49.078;8.578;2023-08-21T11:50:11;8.48;;;4.03;;
12088;SDS011;6107;49.078;8.578;2023-08-21T11:52:40;5.40;;;3.00;;
12088;SDS011;6107;49.078;8.578;2023-08-21T11:55:10;7.70;;;3.67;;
12088;SDS011;6107;49.078;8.578;2023-08-21T11:57:35;5.05;;;3.13;;
12088;SDS011;6107;49.078;8.578;2023-08-21T12:00:11;5.13;;;2.92;;
12088;SDS011;6107;49.078;8.578;2023-08-21T12:02:37;4.55;;;3.33;;
12088;SDS011;6107;49.078;8.578;2023-08-21T12:05:03;6.97;;;3.75;;
12088;SDS011;6107;49.078;8.578;2023-08-21T12:07:30;11.93;;;3.50;;
12088;SDS011;6107;49.078;8.578;2023-08-21T12:09:56;6.35;;;3.13;;
12088;SDS011;6107;49.078;8.578;2023-08-21T12:12:22;8.27;;;3.75;;
12088;SDS011;6107;49.078;8.578;2023-08-21T12:14:48;5.70;;;3.55;;
12088;SDS011;6107;49.078;8.578;2023-08-21T12:17:13;16.63;;;3.28;;
12088;SDS011;6107;49.078;8.578;2023-08-21T12:19:39;6.43;;;3.70;;
12088;SDS011;6107;49.078;8.578;2023-08-21T12:22:05;9.93;;;3.10;;
12088;SDS011;6107;49.078;8.578;2023-08-21T12:24:30;10.70;;;3.70;;
12088;SDS011;6107;49.078;8.578;2023-08-21T12:26:56;13.40;;;3.85;;
12088;SDS011;6107;49.078;8.578;2023-08-21T12:29:21;5.00;;;2.80;;
12088;SDS011;6107;49.078;8.578;2023-08-21T12:31:47;4.57;;;3.13;;
12088;SDS011;6107;49.078;8.578;2023-08-21T12:34:13;8.10;;;3.38;;
12088;SDS011;6107;49.078;8.578;2023-08-21T12:36:38;6.80;;;3.47;;
12088;SDS011;6107;49.078;8.578;2023-08-21T12:39:04;5.63;;;3.35;;
12088;SDS011;6107;49.078;8.578;2023-08-21T12:41:31;4.53;;;2.95;;
12088;SDS011;6107;49.078;8.578;2023-08-21T12:44:01;6.60;;;3.30;;
12088;SDS011;6107;49.078;8.578;2023-08-21T12:46:28;7.38;;;2.80;;
12088;SDS011;6107;49.078;8.578;2023-08-21T12:48:54;8.80;;;3.38;;
12088;SDS011;6107;49.078;8.578;2023-08-21T12:51:20;5.38;;;3.13;;
12088;SDS011;6107;49.078;8.578;2023-08-21T12:53:46;5.80;;;3.45;;
12088;SDS011;6107;49.078;8.578;2023-08-21T12:56:12;7.05;;;3.67;;
12088;SDS011;6107;49.078;8.578;2023-08-21T12:58:37;6.93;;;2.85;;
12088;SDS011;6107;49.078;8.578;2023-08-21T13:01:03;10.23;;;3.30;;
12088;SDS011;6107;49.078;8.578;2023-08-21T13:03:30;6.32;;;3.25;;
12088;SDS011;6107;49.078;8.578;2023-08-21T13:05:55;6.43;;;3.35;;
12088;SDS011;6107;49.078;8.578;2023-08-21T13:08:21;5.55;;;3.15;;
12088;SDS011;6107;49.078;8.578;2023-08-21T13:10:46;5.13;;;2.83;;
12088;SDS011;6107;49.078;8.578;2023-08-21T13:13:12;5.82;;;3.45;;
12088;SDS011;6107;49.078;8.578;2023-08-21T13:15:38;4.50;;;2.88;;
12088;SDS011;6107;49.078;8.578;2023-08-21T13:18:03;8.95;;;3.10;;
12088;SDS011;6107;49.078;8.578;2023-08-21T13:20:29;6.72;;;3.67;;
12088;SDS011;6107;49.078;8.578;2023-08-21T13:22:55;5.72;;;3.40;;
12088;SDS011;6107;49.078;8.578;2023-08-21T13:25:21;9.05;;;3.05;;
12088;SDS011;6107;49.078;8.578;2023-08-21T13:27:49;5.05;;;2.95;;
12088;SDS011;6107;49.078;8.578;2023-08-21T13:30:15;11.02;;;3.42;;
12088;SDS011;6107;49.078;8.578;2023-08-21T13:32:40;7.43;;;3.65;;
12088;SDS011;6107;49.078;8.578;2023-08-21T13:35:06;6.32;;;3.67;;
12088;SDS011;6107;49.078;8.578;2023-08-21T13:37:33;5.78;;;3.10;;
12088;SDS011;6107;49.078;8.578;2023-08-21T13:40:00;9.13;;;3.38;;
12088;SDS011;6107;49.078;8.578;2023-08-21T13:42:33;9.85;;;2.83;;
12088;SDS011;6107;49.078;8.578;2023-08-21T13:45:02;6.57;;;2.88;;
12088;SDS011;6107;49.078;8.578;2023-08-21T13:47:28;6.22;;;3.53;;
12088;SDS011;6107;49.078;8.578;2023-08-21T13:49:53;8.18;;;3.28;;
12088;SDS011;6107;49.078;8.578;2023-08-21T13:52:19;7.50;;;2.90;;
12088;SDS011;6107;49.078;8.578;2023-08-21T13:54:44;6.55;;;2.75;;
12088;SDS011;6107;49.078;8.578;2023-08-21T13:57:10;4.45;;;2.75;;
12088;SDS011;6107;49.078;8.578;2023-08-21T13:59:35;6.88;;;2.83;;
12088;SDS011;6107;49.078;8.578;2023-08-21T14:02:01;4.38;;;2.92;;
12088;SDS011;6107;49.078;8.578;2023-08-21T14:04:26;7.88;;;3.17;;
12088;SDS011;6107;49.078;8.578;2023-08-21T14:06:52;7.60;;;2.70;;
12088;SDS011;6107;49.078;8.578;2023-08-21T14:09:17;4.25;;;3.35;;
12088;SDS011;6107;49.078;8.578;2023-08-21T14:11:44;9.00;;;2.90;;
12088;SDS011;6107;49.078;8.578;2023-08-21T14:14:09;3.20;;;2.67;;
12088;SDS011;6107;49.078;8.578;2023-08-21T14:16:35;4.10;;;2.92;;
12088;SDS011;6107;49.078;8.578;2023-08-21T14:19:00;8.45;;;2.92;;
12088;SDS011;6107;49.078;8.578;2023-08-21T14:21:25;7.03;;;3.10;;
12088;SDS011;6107;49.078;8.578;2023-08-21T14:23:51;6.47;;;2.67;;
12088;SDS011;6107;49.078;8.578;2023-08-21T14:26:16;5.97;;;3.10;;
12088;SDS011;6107;49.078;8.578;2023-08-21T14:28:42;9.07;;;3.55;;
12088;SDS011;6107;49.078;8.578;2023-08-21T14:31:10;5.93;;;3.10;;
12088;SDS011;6107;49.078;8.578;2023-08-21T14:33:36;4.65;;;3.15;;
12088;SDS011;6107;49.078;8.578;2023-08-21T14:36:01;5.22;;;3.20;;
12088;SDS011;6107;49.078;8.578;2023-08-21T14:38:27;4.50;;;2.60;;
12088;SDS011;6107;49.078;8.578;2023-08-21T14:40:52;10.93;;;2.80;;
12088;SDS011;6107;49.078;8.578;2023-08-21T14:43:18;5.38;;;2.92;;
12088;SDS011;6107;49.078;8.578;2023-08-21T14:45:43;5.28;;;2.45;;
12088;SDS011;6107;49.078;8.578;2023-08-21T14:48:09;4.22;;;2.35;;
12088;SDS011;6107;49.078;8.578;2023-08-21T14:50:35;5.20;;;2.70;;
12088;SDS011;6107;49.078;8.578;2023-08-21T14:53:00;7.13;;;2.10;;
12088;SDS011;6107;49.078;8.578;2023-08-21T14:55:26;5.03;;;2.97;;
12088;SDS011;6107;49.078;8.578;2023-08-21T14:57:51;9.50;;;2.60;;
12088;SDS011;6107;49.078;8.578;2023-08-21T15:00:17;5.30;;;2.83;;